createdAt,value
2022-12-14T00:03:19.915Z,100637.47
2022-12-14T00:08:21.574Z,100625.97
2022-12-14T00:13:23.118Z,100619.63
2022-12-14T00:18:24.909Z,100609.91
2022-12-14T00:23:26.605Z,100601.88
2022-12-14T00:28:28.584Z,100594.22
2022-12-14T00:33:30.396Z,100599.78
2022-12-14T00:38:31.965Z,100602.81
2022-12-14T00:43:33.630Z,100596.91
2022-12-14T00:48:35.627Z,100598.03
2022-12-14T00:53:37.135Z,100582.84
2022-12-14T00:58:38.661Z,100590.13
2022-12-14T01:03:40.303Z,100587.25
2022-12-14T01:08:41.976Z,100577.53
2022-12-14T01:13:43.537Z,100567.31
2022-12-14T01:18:45.103Z,100555.81
2022-12-14T01:23:47.948Z,100550.19
2022-12-14T01:28:56.357Z,100555.53
2022-12-14T01:33:57.898Z,100561.09
2022-12-14T01:39:02.241Z,100552.97
2022-12-14T01:44:23.605Z,100544.84
2022-12-14T01:49:45.419Z,100536.22
2022-12-14T01:54:57.817Z,100545.56
2022-12-14T02:00:06.741Z,100539.56
2022-12-14T02:05:10.980Z,100535.03
2022-12-14T02:10:12.507Z,100528.78
2022-12-14T02:15:14.682Z,100523.94
2022-12-14T02:20:17.282Z,100526.03
2022-12-14T02:25:43.417Z,100532.25
2022-12-14T02:31:26.032Z,100520.34
2022-12-14T02:36:41.679Z,100511.88
2022-12-14T02:41:55.127Z,100518.38
2022-12-14T02:47:03.688Z,100503.41
2022-12-14T02:52:22.555Z,100495.00
2022-12-14T02:57:37.164Z,100494.34
2022-12-14T03:02:40.941Z,100490.91
2022-12-14T03:07:54.178Z,100477.81
2022-12-14T03:13:02.889Z,100488.50
2022-12-14T03:18:07.521Z,100478.22
2022-12-14T03:23:18.129Z,100476.56
2022-12-14T03:28:39.719Z,100472.84
2022-12-14T03:33:45.048Z,100464.91
2022-12-14T03:38:50.994Z,100464.13
2022-12-14T03:44:10.622Z,100461.72
2022-12-14T03:49:50.721Z,100449.59
2022-12-14T03:55:16.744Z,100451.13
2022-12-14T04:00:22.515Z,100446.84
2022-12-14T04:05:33.049Z,100453.72
2022-12-14T04:11:04.024Z,100437.94
2022-12-14T04:16:31.363Z,100436.97
2022-12-14T04:21:55.044Z,100428.94
2022-12-14T04:27:03.286Z,100426.50
2022-12-14T04:32:13.461Z,100424.97
2022-12-14T04:37:19.585Z,100440.47
2022-12-14T04:42:28.247Z,100430.38
2022-12-14T04:47:35.045Z,100430.28
2022-12-14T04:52:43.267Z,100427.16
2022-12-14T04:58:02.557Z,100428.47
2022-12-14T05:03:32.203Z,100428.06
2022-12-14T05:08:52.214Z,100418.13
2022-12-14T05:13:53.724Z,100404.47
2022-12-14T05:18:55.277Z,100396.53
2022-12-14T05:23:59.933Z,100404.91
2022-12-14T05:29:01.444Z,100404.91
2022-12-14T05:34:03.393Z,100408.31
2022-12-14T05:39:04.880Z,100398.28
2022-12-14T05:44:06.445Z,100394.22
2022-12-14T05:49:08.009Z,100398.97
2022-12-14T05:54:09.614Z,100401.13
2022-12-14T05:59:15.431Z,100392.91
2022-12-14T06:04:18.199Z,100402.00
2022-12-14T06:09:19.949Z,100399.84
2022-12-14T06:14:21.509Z,100394.78
2022-12-14T06:19:23.035Z,100394.34
2022-12-14T06:24:24.510Z,100394.34
2022-12-14T06:29:26.239Z,100392.72
2022-12-14T06:34:28.805Z,100375.44
2022-12-14T06:39:30.366Z,100379.34
2022-12-14T06:44:31.873Z,100373.50
2022-12-14T06:49:33.408Z,100372.91
2022-12-14T06:54:34.880Z,100390.91
2022-12-14T06:59:36.352Z,100379.94
2022-12-14T07:04:37.820Z,100374.78
2022-12-14T07:09:39.521Z,100385.19
2022-12-14T07:14:41.074Z,100380.50
2022-12-14T07:19:46.317Z,100381.97
2022-12-14T07:24:50.672Z,100379.31
2022-12-14T07:29:52.353Z,100379.47
2022-12-14T07:34:53.892Z,100374.28
2022-12-14T07:39:55.446Z,100376.69
2022-12-14T07:44:56.961Z,100375.78
2022-12-14T07:49:58.434Z,100384.63
2022-12-14T07:54:59.986Z,100371.63
2022-12-14T08:00:01.537Z,100380.16
2022-12-14T08:05:07.795Z,100382.38
2022-12-14T08:10:12.114Z,100383.94
2022-12-14T08:15:13.683Z,100383.25
2022-12-14T08:20:15.368Z,100380.56
2022-12-14T08:25:16.912Z,100393.38
2022-12-14T08:30:18.438Z,100391.41
2022-12-14T08:35:19.920Z,100397.59
2022-12-14T08:40:21.390Z,100397.09
2022-12-14T08:45:22.854Z,100402.50
2022-12-14T08:50:25.670Z,100403.88
2022-12-14T08:55:31.353Z,100399.75
2022-12-14T09:00:35.354Z,100398.00
2022-12-14T09:05:36.974Z,100396.22
2022-12-14T09:10:38.701Z,100400.22
2022-12-14T09:15:40.238Z,100404.69
2022-12-14T09:20:43.354Z,100403.16
2022-12-14T09:25:44.912Z,100395.47
2022-12-14T09:30:46.438Z,100386.91
2022-12-14T09:35:47.970Z,100389.94
2022-12-14T09:40:59.313Z,100394.50
2022-12-14T09:46:13.289Z,100375.50
2022-12-14T09:51:21.240Z,100378.38
2022-12-14T09:56:22.725Z,100385.69
2022-12-14T10:07:34.660Z,100385.41
2022-12-14T10:12:39.051Z,100391.41
2022-12-14T10:17:59.121Z,100391.06
2022-12-14T10:23:02.181Z,100389.97
2022-12-14T10:28:11.182Z,100386.63
2022-12-14T10:33:24.735Z,100387.66
2022-12-14T10:38:46.067Z,100383.56
2022-12-14T10:44:05.777Z,100383.53
2022-12-14T10:49:33.873Z,100372.19
2022-12-14T10:54:44.930Z,100372.72
2022-12-14T11:00:05.245Z,100367.66
2022-12-14T11:05:41.261Z,100364.28
2022-12-14T11:10:42.743Z,100351.34
2022-12-14T11:15:46.968Z,100348.69
2022-12-14T11:20:57.934Z,100359.50
2022-12-14T11:26:02.293Z,100356.69
2022-12-14T11:31:05.529Z,100344.47
2022-12-14T11:36:08.716Z,100356.47
2022-12-14T11:41:21.224Z,100364.19
2022-12-14T11:46:44.780Z,100363.31
2022-12-14T11:52:05.000Z,100351.44
2022-12-14T11:57:12.658Z,100355.63
2022-12-14T12:02:37.245Z,100344.41
2022-12-14T12:07:50.841Z,100345.47
2022-12-14T12:13:00.668Z,100345.59
2022-12-14T12:18:08.451Z,100353.44
2022-12-14T12:23:41.997Z,100337.19
2022-12-14T12:28:51.897Z,100341.22
2022-12-14T12:34:00.684Z,100333.25
2022-12-14T12:39:16.782Z,100338.53
2022-12-14T12:44:27.518Z,100319.81
2022-12-14T12:49:29.178Z,100328.75
2022-12-14T12:54:36.207Z,100340.34
2022-12-14T12:59:50.271Z,100333.16
2022-12-14T13:04:53.444Z,100327.53
2022-12-14T13:10:05.969Z,100320.22
2022-12-14T13:15:39.364Z,100326.66
2022-12-14T13:20:41.012Z,100332.16
2022-12-14T13:26:02.406Z,100328.97
2022-12-14T13:31:14.515Z,100338.38
2022-12-14T13:36:42.838Z,100337.25
2022-12-14T13:41:50.142Z,100333.69
2022-12-14T13:47:06.621Z,100334.56
2022-12-14T13:52:31.856Z,100336.25
2022-12-14T13:57:33.412Z,100340.41
2022-12-14T14:02:34.923Z,100332.06
2022-12-14T14:07:49.307Z,100334.88
2022-12-14T14:12:50.832Z,100334.59
2022-12-14T14:17:54.081Z,100333.44
2022-12-14T14:23:13.492Z,100345.19
2022-12-14T14:28:22.611Z,100342.69
2022-12-14T14:33:47.810Z,100342.47
2022-12-14T14:38:50.987Z,100346.41
2022-12-14T14:44:05.815Z,100365.38
2022-12-14T14:49:30.448Z,100374.59
2022-12-14T14:55:16.305Z,100362.19
2022-12-14T15:00:01.394Z,100368.97
2022-12-14T15:05:33.337Z,100371.00
2022-12-14T15:10:33.178Z,100385.38
2022-12-14T15:15:43.780Z,100386.16
2022-12-14T15:21:16.640Z,100379.09
2022-12-14T15:26:25.391Z,100384.00
2022-12-14T15:31:33.346Z,100384.22
2022-12-14T15:36:42.110Z,100375.31
2022-12-14T15:41:43.622Z,100377.03
2022-12-14T15:46:53.883Z,100367.38
2022-12-14T15:51:57.753Z,100374.88
2022-12-14T15:57:00.111Z,100376.47
2022-12-14T16:02:17.681Z,100373.56
2022-12-14T16:07:26.037Z,100378.66
2022-12-14T16:12:51.694Z,100379.09
2022-12-14T16:18:02.190Z,100379.94
2022-12-14T16:23:19.880Z,100389.44
2022-12-14T16:28:37.467Z,100389.78
2022-12-14T16:33:41.548Z,100380.72
2022-12-14T16:38:59.539Z,100382.09
2022-12-14T16:44:01.797Z,100370.97
2022-12-14T16:49:28.079Z,100372.22
2022-12-14T16:54:32.266Z,100369.19
2022-12-14T16:59:42.103Z,100372.25
2022-12-14T17:04:43.665Z,100364.25
2022-12-14T17:09:45.231Z,100354.41
2022-12-14T17:14:49.738Z,100359.06
2022-12-14T17:19:51.874Z,100362.28
2022-12-14T17:24:53.668Z,100371.94
2022-12-14T17:29:57.243Z,100384.75
2022-12-14T17:34:59.424Z,100387.72
2022-12-14T17:40:00.982Z,100385.88
2022-12-14T17:45:02.636Z,100385.38
2022-12-14T17:50:04.487Z,100393.88
2022-12-14T17:55:06.184Z,100388.53
2022-12-14T18:00:27.376Z,100398.03
2022-12-14T18:05:29.799Z,100397.84
2022-12-14T18:10:31.610Z,100400.34
2022-12-14T18:15:45.034Z,100397.44
2022-12-14T18:20:54.798Z,100404.03
2022-12-14T18:25:58.961Z,100402.19
2022-12-14T18:31:05.111Z,100404.50
2022-12-14T18:36:11.533Z,100412.19
2022-12-14T18:41:16.240Z,100412.59
2022-12-14T18:46:18.261Z,100411.44
2022-12-14T18:51:23.502Z,100405.44
2022-12-14T18:56:25.410Z,100411.19
2022-12-14T19:01:27.127Z,100411.31
2022-12-14T19:06:45.490Z,100409.78
2022-12-14T19:11:47.469Z,100416.66
2022-12-14T19:16:48.941Z,100424.47
2022-12-14T19:21:50.515Z,100430.50
2022-12-14T19:26:51.980Z,100430.78
2022-12-14T19:31:54.727Z,100437.72
2022-12-14T19:36:57.106Z,100445.88
2022-12-14T19:41:58.633Z,100455.44
2022-12-14T19:47:01.145Z,100468.03
2022-12-14T19:52:02.716Z,100467.47
2022-12-14T19:57:04.255Z,100467.03
2022-12-14T20:02:06.055Z,100457.47
2022-12-14T20:07:08.665Z,100468.16
2022-12-14T20:12:11.326Z,100454.16
2022-12-14T20:17:14.171Z,100444.00
2022-12-14T20:22:15.819Z,100448.50
2022-12-14T20:27:17.811Z,100452.91
2022-12-14T20:32:19.348Z,100462.28
2022-12-14T20:37:20.892Z,100462.31
2022-12-14T20:42:22.404Z,100487.81
2022-12-14T20:47:23.876Z,100486.28
2022-12-14T20:52:25.540Z,100496.88
2022-12-14T20:57:28.279Z,100496.97
2022-12-14T21:02:29.866Z,100498.13
2022-12-14T21:07:32.695Z,100498.72
2022-12-14T21:12:35.045Z,100499.00
2022-12-14T21:17:36.551Z,100497.34
2022-12-14T21:22:38.103Z,100496.25
2022-12-14T21:27:39.753Z,100485.03
2022-12-14T21:32:41.265Z,100502.25
2022-12-14T21:37:42.821Z,100498.34
2022-12-14T21:42:44.354Z,100504.94
2022-12-14T21:47:45.898Z,100495.19
2022-12-14T21:52:47.425Z,100505.94
2022-12-14T21:58:07.718Z,100506.09
2022-12-14T22:03:09.260Z,100497.78
2022-12-14T22:08:10.824Z,100503.22
2022-12-14T22:13:12.325Z,100512.41
2022-12-14T22:18:13.841Z,100516.75
2022-12-14T22:23:15.718Z,100521.81
2022-12-14T22:28:17.216Z,100530.97
2022-12-14T22:33:18.792Z,100519.81
2022-12-14T22:38:20.265Z,100516.31
2022-12-14T22:43:28.161Z,100517.91
2022-12-14T22:48:36.401Z,100526.03
2022-12-14T22:53:38.020Z,100537.66
2022-12-14T22:58:44.723Z,100526.59
2022-12-14T23:03:52.638Z,100536.03
2022-12-14T23:09:12.513Z,100526.59
2022-12-14T23:14:32.964Z,100535.84
2022-12-14T23:19:53.244Z,100545.00
2022-12-14T23:25:12.945Z,100554.59
2022-12-14T23:30:32.836Z,100547.00
2022-12-14T23:35:52.943Z,100545.75
2022-12-14T23:41:20.400Z,100557.31
2022-12-14T23:46:40.322Z,100546.66
2022-12-14T23:52:00.531Z,100553.91
2022-12-14T23:57:24.969Z,100555.25
